Time;durP1;ratioP1;P1;durP2;ratioP2;P2;SDS_P1;SDS_P2;PMS_P1;PMS_P2;Temp;Humidity;BMP_temperature;BMP_pressure;BME280_temperature;BME280_humidity;BME280_pressure;Samples;Min_cycle;Max_cycle;Signal;HPM_P1;HPM_P2
2023/04/22 00:00:48;;;;;;;43.97;23.73;;;5.20;99.90;;;;;;5058917;28;20032;-81
2023/04/22 00:03:14;;;;;;;44.05;24.52;;;5.30;99.90;;;;;;5058338;28;20114;-80
2023/04/22 00:05:40;;;;;;;42.22;22.70;;;5.30;99.90;;;;;;5063539;28;20037;-80
2023/04/22 00:08:07;;;;;;;39.22;21.58;;;5.30;99.90;;;;;;5060755;28;20029;-80
2023/04/22 00:10:32;;;;;;;41.95;23.35;;;5.30;99.90;;;;;;5057799;28;20032;-81
2023/04/22 00:12:58;;;;;;;40.70;22.75;;;5.30;99.90;;;;;;5062651;28;20107;-81
2023/04/22 00:15:25;;;;;;;43.28;23.08;;;5.40;99.90;;;;;;5046792;28;20039;-81
2023/04/22 00:17:51;;;;;;;39.90;22.33;;;5.30;99.90;;;;;;5064429;28;20066;-80
2023/04/22 00:20:20;;;;;;;37.40;20.58;;;5.30;99.90;;;;;;5037272;28;20078;-80
2023/04/22 00:22:46;;;;;;;34.95;19.85;;;5.20;99.90;;;;;;5061730;28;20036;-80
2023/04/22 00:25:11;;;;;;;34.53;19.25;;;5.10;99.90;;;;;;5064825;28;20402;-80
2023/04/22 00:27:37;;;;;;;33.70;19.08;;;5.00;99.90;;;;;;5063328;28;20047;-80
2023/04/22 00:30:03;;;;;;;35.30;19.58;;;5.00;99.90;;;;;;5046992;28;20071;-80
2023/04/22 00:32:29;;;;;;;36.80;20.13;;;5.00;99.90;;;;;;5062910;28;20051;-80
2023/04/22 00:34:56;;;;;;;35.47;19.08;;;5.00;99.90;;;;;;5064419;28;20029;-80
2023/04/22 00:37:22;;;;;;;34.40;18.67;;;5.00;99.90;;;;;;5065255;28;20024;-80
2023/04/22 00:39:48;;;;;;;34.97;18.30;;;5.00;99.90;;;;;;5063702;28;20040;-80
2023/04/22 00:42:14;;;;;;;33.75;18.45;;;5.00;99.90;;;;;;5050709;28;20089;-80
2023/04/22 00:44:41;;;;;;;35.50;19.30;;;5.00;99.90;;;;;;5074409;28;20044;-80
2023/04/22 00:47:10;;;;;;;32.60;18.95;;;5.00;99.90;;;;;;5066165;28;20020;-81
2023/04/22 00:49:36;;;;;;;33.03;18.60;;;5.10;99.90;;;;;;5064635;28;20032;-81
2023/04/22 00:52:02;;;;;;;29.58;17.27;;;5.00;99.90;;;;;;5062869;28;20027;-79
2023/04/22 00:54:28;;;;;;;32.85;18.88;;;5.10;99.90;;;;;;5063825;28;20052;-80
2023/04/22 00:56:56;;;;;;;34.95;18.85;;;5.10;99.90;;;;;;5061899;28;20021;-80
2023/04/22 00:59:22;;;;;;;38.13;20.10;;;5.10;99.90;;;;;;5065442;28;20478;-80
2023/04/22 01:01:49;;;;;;;38.92;20.75;;;5.10;99.90;;;;;;5063381;28;20031;-78
2023/04/22 01:04:14;;;;;;;35.67;19.23;;;5.20;99.90;;;;;;5062630;28;20072;-81
2023/04/22 01:06:42;;;;;;;36.00;19.23;;;5.30;99.90;;;;;;5064734;28;20078;-81
2023/04/22 01:09:08;;;;;;;36.80;21.20;;;5.20;99.90;;;;;;5064866;28;20040;-80
2023/04/22 01:11:35;;;;;;;42.35;21.73;;;5.30;99.90;;;;;;5066641;28;20375;-81
2023/04/22 01:14:04;;;;;;;43.35;23.17;;;5.30;99.90;;;;;;5063268;28;20034;-81
2023/04/22 01:16:34;;;;;;;45.80;25.52;;;5.40;99.90;;;;;;5062914;28;20436;-80
2023/04/22 01:19:00;;;;;;;53.47;26.33;;;5.40;99.90;;;;;;5063733;28;20036;-81
2023/04/22 01:21:27;;;;;;;50.97;26.73;;;5.50;99.90;;;;;;5064699;28;20028;-80
2023/04/22 01:23:52;;;;;;;52.88;25.85;;;5.50;99.90;;;;;;5063735;28;20050;-81
2023/04/22 01:26:18;;;;;;;50.72;26.23;;;5.60;99.90;;;;;;5063311;28;20055;-81
2023/04/22 01:28:44;;;;;;;50.75;27.75;;;5.60;99.90;;;;;;5065686;28;20325;-81
2023/04/22 01:31:10;;;;;;;50.97;26.23;;;5.70;99.90;;;;;;5062351;28;20504;-81
2023/04/22 01:33:36;;;;;;;54.58;28.30;;;5.70;99.90;;;;;;5060985;28;20110;-81
2023/04/22 01:36:02;;;;;;;58.67;27.70;;;5.70;99.90;;;;;;5045945;28;20036;-81
2023/04/22 01:38:32;;;;;;;53.58;28.40;;;5.70;99.90;;;;;;5065960;28;20540;-81
2023/04/22 01:40:58;;;;;;;52.20;26.20;;;5.80;99.90;;;;;;5048201;28;20047;-81
2023/04/22 01:43:24;;;;;;;50.83;26.38;;;5.80;99.90;;;;;;5064520;28;20024;-80
2023/04/22 01:45:49;;;;;;;51.75;27.00;;;5.90;99.90;;;;;;5068977;28;20043;-81
2023/04/22 01:48:15;;;;;;;55.38;26.25;;;5.90;99.90;;;;;;5071915;28;20438;-81
2023/04/22 01:50:40;;;;;;;46.15;24.92;;;5.90;99.90;;;;;;5064894;28;20051;-81
2023/04/22 01:53:07;;;;;;;46.60;24.15;;;6.00;99.90;;;;;;5066576;28;20107;-81
2023/04/22 01:55:34;;;;;;;47.30;23.88;;;6.00;99.90;;;;;;5046045;28;20048;-81
2023/04/22 01:58:00;;;;;;;44.92;24.70;;;6.00;99.90;;;;;;5064906;28;20028;-81
2023/04/22 02:00:26;;;;;;;45.63;24.65;;;6.00;99.90;;;;;;5065071;28;20043;-80
2023/04/22 02:02:51;;;;;;;49.45;24.92;;;6.00;99.90;;;;;;5064244;28;20029;-81
2023/04/22 02:05:17;;;;;;;45.80;24.77;;;6.00;99.90;;;;;;5061395;28;20033;-80
2023/04/22 02:07:43;;;;;;;52.00;26.33;;;6.00;99.90;;;;;;5049570;28;20651;-80
2023/04/22 02:10:10;;;;;;;45.20;24.60;;;6.00;99.90;;;;;;5054352;28;20040;-81
2023/04/22 02:12:36;;;;;;;44.55;23.60;;;5.90;99.90;;;;;;5046576;28;20170;-81
2023/04/22 02:15:01;;;;;;;46.08;23.70;;;5.80;99.90;;;;;;5047596;28;20131;-80
2023/04/22 02:17:27;;;;;;;43.40;23.10;;;5.70;99.90;;;;;;5062775;28;20032;-81
2023/04/22 02:19:53;;;;;;;46.05;24.20;;;5.70;99.90;;;;;;5064203;28;20046;-81
2023/04/22 02:22:20;;;;;;;41.78;23.98;;;5.60;99.90;;;;;;5047179;28;20067;-81
2023/04/22 02:24:45;;;;;;;48.60;24.10;;;5.50;99.90;;;;;;5063858;28;20139;-81
2023/04/22 02:27:11;;;;;;;47.33;23.70;;;5.40;99.90;;;;;;5062552;28;20102;-80
2023/04/22 02:29:36;;;;;;;43.63;23.55;;;5.40;99.90;;;;;;5064176;28;20089;-81
2023/04/22 02:32:02;;;;;;;47.92;24.65;;;5.40;99.90;;;;;;5065164;28;20068;-81
2023/04/22 02:34:28;;;;;;;45.97;24.75;;;5.30;99.90;;;;;;5062707;28;20043;-80
2023/04/22 02:36:53;;;;;;;51.17;25.75;;;5.30;99.90;;;;;;5063315;28;20323;-80
2023/04/22 02:39:19;;;;;;;49.15;25.63;;;5.30;99.90;;;;;;5062355;28;20041;-81
2023/04/22 02:41:44;;;;;;;56.92;28.33;;;5.30;99.90;;;;;;5055509;28;20105;-80
2023/04/22 02:44:10;;;;;;;52.40;26.48;;;5.30;99.90;;;;;;5066877;28;20469;-80
2023/04/22 02:46:36;;;;;;;52.63;27.92;;;5.30;99.90;;;;;;5049247;28;20036;-81
2023/04/22 02:49:01;;;;;;;51.13;25.92;;;5.30;99.90;;;;;;5065674;28;20017;-81
2023/04/22 02:51:27;;;;;;;52.50;27.10;;;5.30;99.90;;;;;;5065611;28;20036;-81
2023/04/22 02:53:52;;;;;;;49.50;25.10;;;5.20;99.90;;;;;;5066463;28;20113;-81
2023/04/22 02:56:19;;;;;;;45.00;24.63;;;5.30;99.90;;;;;;5068098;28;20044;-81
2023/04/22 02:58:45;;;;;;;51.58;25.10;;;5.30;99.90;;;;;;5049905;28;20033;-81
2023/04/22 03:01:11;;;;;;;46.85;24.75;;;5.20;99.90;;;;;;5065508;28;20024;-80
2023/04/22 03:03:36;;;;;;;44.28;22.23;;;5.20;99.90;;;;;;5063920;28;20020;-80
2023/04/22 03:06:02;;;;;;;36.45;19.40;;;5.00;99.90;;;;;;5077698;28;20041;-80
2023/04/22 03:08:27;;;;;;;35.30;19.58;;;4.80;99.90;;;;;;5088554;28;20045;-80
2023/04/22 03:10:53;;;;;;;33.88;18.48;;;4.70;99.90;;;;;;5087356;28;20063;-81
2023/04/22 03:13:18;;;;;;;35.65;19.38;;;4.60;99.90;;;;;;5052673;28;20044;-81
2023/04/22 03:15:44;;;;;;;39.53;20.90;;;4.60;99.90;;;;;;5071961;28;20047;-81
2023/04/22 03:18:10;;;;;;;40.95;20.45;;;4.50;99.90;;;;;;5074732;28;20086;-80
2023/04/22 03:20:35;;;;;;;41.72;22.25;;;4.50;99.90;;;;;;5088192;28;20059;-80
2023/04/22 03:23:01;;;;;;;39.58;20.63;;;4.40;99.90;;;;;;5068871;28;20048;-80
2023/04/22 03:25:27;;;;;;;44.70;22.15;;;4.40;99.90;;;;;;5053653;28;20090;-80
2023/04/22 03:27:52;;;;;;;42.88;22.63;;;4.40;99.90;;;;;;5067562;28;20028;-80
2023/04/22 03:30:18;;;;;;;44.80;23.40;;;4.50;99.90;;;;;;5067757;28;20087;-80
2023/04/22 03:32:44;;;;;;;51.00;25.65;;;4.60;99.90;;;;;;5067343;28;20027;-80
2023/04/22 03:35:10;;;;;;;47.25;25.67;;;4.60;99.90;;;;;;5058434;28;20051;-79
2023/04/22 03:37:35;;;;;;;55.22;25.90;;;4.70;99.90;;;;;;5063481;28;20090;-80
2023/04/22 03:40:01;;;;;;;50.42;25.33;;;4.80;99.90;;;;;;5048527;28;20094;-80
2023/04/22 03:42:27;;;;;;;47.47;24.20;;;4.90;99.90;;;;;;5065580;28;20512;-80
2023/04/22 03:44:52;;;;;;;51.70;25.27;;;5.00;99.90;;;;;;5047143;28;20047;-80
2023/04/22 03:47:18;;;;;;;46.95;24.35;;;5.00;99.90;;;;;;5063761;28;20298;-80
2023/04/22 03:49:44;;;;;;;50.75;25.67;;;5.00;99.90;;;;;;5069810;28;20056;-80
2023/04/22 03:52:09;;;;;;;45.67;24.27;;;5.10;99.90;;;;;;5080596;28;20025;-80
2023/04/22 03:54:35;;;;;;;44.78;23.65;;;5.10;99.90;;;;;;5050481;28;20112;-80
2023/04/22 03:57:01;;;;;;;44.78;24.42;;;5.20;99.90;;;;;;5051118;28;20039;-80
2023/04/22 03:59:27;;;;;;;45.08;22.83;;;5.20;99.90;;;;;;5067621;28;20024;-80
2023/04/22 04:01:53;;;;;;;43.78;21.55;;;5.20;99.90;;;;;;5068683;28;20031;-80
2023/04/22 04:04:19;;;;;;;44.70;23.13;;;5.20;99.90;;;;;;5067613;28;20033;-80
2023/04/22 04:06:44;;;;;;;45.83;22.33;;;5.20;99.90;;;;;;5064482;28;20527;-80
2023/04/22 04:09:10;;;;;;;44.13;23.88;;;5.20;99.90;;;;;;5069345;28;20147;-81
2023/04/22 04:11:36;;;;;;;44.75;23.45;;;5.20;99.90;;;;;;5069820;28;20054;-80
2023/04/22 04:14:02;;;;;;;43.90;23.17;;;5.20;99.90;;;;;;5081754;28;20033;-80
2023/04/22 04:16:28;;;;;;;39.15;21.40;;;5.10;99.90;;;;;;5066960;28;20028;-81
2023/04/22 04:18:53;;;;;;;43.30;22.67;;;5.10;99.90;;;;;;5064716;28;20124;-80
2023/04/22 04:21:19;;;;;;;48.05;24.52;;;5.10;99.90;;;;;;5066803;28;20479;-80
2023/04/22 04:23:45;;;;;;;46.75;23.30;;;5.10;99.90;;;;;;5068990;28;20028;-80
2023/04/22 04:26:11;;;;;;;45.83;22.70;;;5.20;99.90;;;;;;5054782;28;20036;-80
2023/04/22 04:28:37;;;;;;;44.55;23.52;;;5.20;99.90;;;;;;5064328;28;20028;-82
2023/04/22 04:31:02;;;;;;;47.05;24.88;;;5.20;99.90;;;;;;5067339;28;20432;-80
2023/04/22 04:33:31;;;;;;;47.58;22.58;;;5.20;99.90;;;;;;5068148;28;20285;-81
2023/04/22 04:35:57;;;;;;;49.22;24.92;;;5.20;99.90;;;;;;5050726;28;20460;-80
2023/04/22 04:38:23;;;;;;;44.60;23.67;;;5.20;99.90;;;;;;5066829;28;20012;-80
2023/04/22 04:40:50;;;;;;;49.17;24.30;;;5.30;99.90;;;;;;5051701;28;20043;-82
2023/04/22 04:43:16;;;;;;;48.00;23.38;;;5.30;99.90;;;;;;5069632;28;20025;-82
2023/04/22 04:45:48;;;;;;;45.58;24.13;;;5.30;99.90;;;;;;5070313;28;20040;-82
2023/04/22 04:48:15;;;;;;;48.25;23.88;;;5.30;99.90;;;;;;5059725;28;20064;-79
2023/04/22 04:50:41;;;;;;;44.85;22.63;;;5.40;99.90;;;;;;5057362;28;20036;-81
2023/04/22 04:53:07;;;;;;;47.67;24.40;;;5.40;99.90;;;;;;5052225;28;20092;-82
2023/04/22 04:55:33;;;;;;;47.42;24.77;;;5.40;99.90;;;;;;5067794;28;20058;-81
2023/04/22 04:57:59;;;;;;;50.63;24.90;;;5.40;99.90;;;;;;5071888;28;20032;-81
2023/04/22 05:00:24;;;;;;;51.95;26.20;;;5.40;99.90;;;;;;5069186;28;20037;-81
2023/04/22 05:02:50;;;;;;;51.40;25.92;;;5.50;99.90;;;;;;5045265;28;20029;-82
2023/04/22 05:05:16;;;;;;;49.10;23.75;;;5.50;99.90;;;;;;5060396;28;20044;-81
2023/04/22 05:07:41;;;;;;;46.58;25.13;;;5.50;99.90;;;;;;5067101;28;20040;-81
2023/04/22 05:10:07;;;;;;;46.15;23.67;;;5.50;99.90;;;;;;5066458;28;20060;-82
2023/04/22 05:12:33;;;;;;;47.10;23.40;;;5.40;99.90;;;;;;5066411;28;20097;-81
2023/04/22 05:14:59;;;;;;;46.45;23.92;;;5.40;99.90;;;;;;5066873;28;20065;-81
2023/04/22 05:17:24;;;;;;;48.00;23.92;;;5.40;99.90;;;;;;5065964;28;20102;-81
2023/04/22 05:19:50;;;;;;;48.28;22.70;;;5.30;99.90;;;;;;5049277;28;20135;-82
2023/04/22 05:22:17;;;;;;;42.05;22.58;;;5.40;99.90;;;;;;5066424;28;20048;-81
2023/04/22 05:24:42;;;;;;;49.95;23.42;;;5.40;99.90;;;;;;5066281;28;20125;-81
2023/04/22 05:27:08;;;;;;;42.58;23.02;;;5.30;99.90;;;;;;5047155;28;20304;-81
2023/04/22 05:29:34;;;;;;;42.08;21.92;;;5.30;99.90;;;;;;5063242;28;20036;-79
2023/04/22 05:32:00;;;;;;;45.75;23.80;;;5.40;99.90;;;;;;5070179;28;20032;-81
2023/04/22 05:34:26;;;;;;;39.28;21.70;;;5.40;99.90;;;;;;5070073;28;20062;-81
2023/04/22 05:36:52;;;;;;;43.67;21.60;;;5.50;99.90;;;;;;5065167;28;20213;-81
2023/04/22 05:39:17;;;;;;;44.65;22.02;;;5.70;99.90;;;;;;5041783;28;20538;-81
2023/04/22 05:41:43;;;;;;;45.58;22.27;;;5.90;99.90;;;;;;5041174;28;20259;-81
2023/04/22 05:44:09;;;;;;;44.33;23.75;;;6.00;99.90;;;;;;5066004;28;20119;-81
2023/04/22 05:46:35;;;;;;;40.33;21.25;;;6.20;99.90;;;;;;5066699;28;20115;-81
2023/04/22 05:49:01;;;;;;;42.20;22.65;;;6.40;99.90;;;;;;5068221;28;20107;-81
2023/04/22 05:51:26;;;;;;;44.25;21.85;;;6.50;99.90;;;;;;5043284;28;20035;-81
2023/04/22 05:53:52;;;;;;;41.95;21.88;;;6.60;99.90;;;;;;5065615;28;20040;-81
2023/04/22 05:56:18;;;;;;;49.15;23.60;;;6.70;99.90;;;;;;5066685;28;20083;-81
2023/04/22 05:58:44;;;;;;;42.10;23.02;;;6.70;99.90;;;;;;5047768;28;20569;-82
2023/04/22 06:01:10;;;;;;;38.47;20.15;;;6.80;99.90;;;;;;5064574;28;20085;-81
2023/04/22 06:03:35;;;;;;;41.17;21.60;;;6.80;99.90;;;;;;5061371;28;20020;-81
2023/04/22 06:06:01;;;;;;;47.35;23.67;;;6.80;99.90;;;;;;5053714;28;20188;-81
2023/04/22 06:08:26;;;;;;;49.65;24.48;;;6.90;99.90;;;;;;5067059;28;20040;-81
2023/04/22 06:10:52;;;;;;;46.53;24.25;;;7.00;99.90;;;;;;5065738;28;20445;-81
2023/04/22 06:13:17;;;;;;;49.67;24.33;;;6.90;99.90;;;;;;5052582;28;20080;-80
2023/04/22 06:15:43;;;;;;;46.53;23.70;;;7.00;99.90;;;;;;5062501;28;20070;-81
2023/04/22 06:18:09;;;;;;;53.00;27.05;;;7.10;99.90;;;;;;5065365;28;20082;-80
2023/04/22 06:20:35;;;;;;;49.72;28.67;;;7.20;99.90;;;;;;5065846;28;20139;-81
2023/04/22 06:23:01;;;;;;;53.45;28.05;;;7.30;99.90;;;;;;5065177;28;20441;-81
2023/04/22 06:25:27;;;;;;;49.25;26.98;;;7.40;99.90;;;;;;5067866;28;20056;-81
2023/04/22 06:27:52;;;;;;;53.45;26.88;;;7.50;99.90;;;;;;5064376;28;20021;-81
2023/04/22 06:30:18;;;;;;;55.38;27.85;;;7.60;99.90;;;;;;5063170;28;20326;-81
2023/04/22 06:32:43;;;;;;;53.80;28.02;;;7.70;99.90;;;;;;5037567;28;20375;-81
2023/04/22 06:35:09;;;;;;;50.13;26.63;;;7.60;99.90;;;;;;5064335;28;20036;-81
2023/04/22 06:37:35;;;;;;;53.58;27.83;;;7.60;99.90;;;;;;5063764;28;20459;-81
2023/04/22 06:40:01;;;;;;;50.55;27.50;;;7.50;99.90;;;;;;5064400;28;20489;-81
2023/04/22 06:42:27;;;;;;;50.45;27.80;;;7.40;99.90;;;;;;5056472;28;20028;-81
2023/04/22 06:44:52;;;;;;;58.47;28.85;;;7.30;99.90;;;;;;5056368;28;20033;-81
2023/04/22 06:47:18;;;;;;;55.08;26.65;;;7.20;99.90;;;;;;5058236;28;20364;-81
2023/04/22 06:49:44;;;;;;;54.47;27.50;;;7.10;99.90;;;;;;5062259;28;20169;-81
2023/04/22 06:52:09;;;;;;;55.22;27.83;;;7.30;99.90;;;;;;5055615;28;20043;-82
2023/04/22 06:54:35;;;;;;;54.28;27.08;;;7.30;99.90;;;;;;5050937;28;20032;-82
2023/04/22 06:57:02;;;;;;;54.17;27.88;;;7.40;99.90;;;;;;5052483;28;20047;-81
2023/04/22 06:59:27;;;;;;;51.47;26.50;;;7.50;99.90;;;;;;5040573;28;20043;-81
2023/04/22 07:01:53;;;;;;;55.92;27.02;;;7.60;99.90;;;;;;5050689;28;20016;-81
2023/04/22 07:04:18;;;;;;;55.85;26.85;;;7.70;99.90;;;;;;5048191;28;20037;-82
2023/04/22 07:06:44;;;;;;;53.55;26.00;;;7.80;99.90;;;;;;5048809;28;20074;-82
2023/04/22 07:09:10;;;;;;;49.15;27.33;;;7.90;99.90;;;;;;5061433;28;20126;-82
2023/04/22 07:11:35;;;;;;;54.58;26.35;;;8.00;99.90;;;;;;5047211;28;20129;-82
2023/04/22 07:14:01;;;;;;;53.55;28.10;;;8.10;99.90;;;;;;5052990;28;20031;-82
2023/04/22 07:16:27;;;;;;;52.25;27.38;;;8.20;99.90;;;;;;5038764;28;20123;-82
2023/04/22 07:18:53;;;;;;;50.72;26.52;;;8.40;99.90;;;;;;5036470;28;20028;-82
2023/04/22 07:21:19;;;;;;;50.47;26.38;;;8.60;99.90;;;;;;5042756;28;20036;-82
2023/04/22 07:23:44;;;;;;;50.00;25.02;;;8.80;99.90;;;;;;5063430;28;20029;-82
2023/04/22 07:26:10;;;;;;;46.95;25.25;;;9.10;99.90;;;;;;5064116;28;20038;-83
2023/04/22 07:28:36;;;;;;;46.45;23.77;;;9.20;99.90;;;;;;5062987;28;20135;-82
2023/04/22 07:31:01;;;;;;;45.08;24.40;;;9.40;99.90;;;;;;5047788;28;20136;-82
2023/04/22 07:33:27;;;;;;;43.70;23.17;;;9.70;99.90;;;;;;5046514;28;20044;-83
2023/04/22 07:35:53;;;;;;;40.33;22.67;;;9.80;99.90;;;;;;5064891;28;20024;-82
2023/04/22 07:38:18;;;;;;;38.97;20.80;;;9.80;99.90;;;;;;5075723;28;20033;-83
2023/04/22 07:40:44;;;;;;;38.63;22.00;;;9.80;99.90;;;;;;5060491;28;20105;-83
2023/04/22 07:43:10;;;;;;;39.05;21.25;;;9.90;99.90;;;;;;5045457;28;20033;-83
2023/04/22 07:45:35;;;;;;;37.40;20.55;;;10.00;99.90;;;;;;5053166;28;20086;-82
2023/04/22 07:48:01;;;;;;;38.15;21.20;;;10.20;99.90;;;;;;5061946;28;20020;-83
2023/04/22 07:50:26;;;;;;;34.90;20.25;;;10.40;99.90;;;;;;5042016;28;20119;-82
2023/04/22 07:52:52;;;;;;;31.05;17.98;;;10.70;99.90;;;;;;5044334;28;20032;-83
2023/04/22 07:55:18;;;;;;;33.50;18.35;;;11.00;99.90;;;;;;5071493;28;20063;-82
2023/04/22 07:57:43;;;;;;;26.08;15.65;;;11.70;99.90;;;;;;5027383;28;20037;-83
2023/04/22 08:00:10;;;;;;;24.05;14.82;;;13.30;97.30;;;;;;5046587;28;20152;-82
2023/04/22 08:02:35;;;;;;;23.13;12.57;;;15.70;88.10;;;;;;5030879;28;20029;-81
2023/04/22 08:05:01;;;;;;;24.23;13.65;;;17.30;71.00;;;;;;5042619;28;20405;-82
2023/04/22 08:07:27;;;;;;;18.70;12.07;;;17.90;55.50;;;;;;5052187;28;20486;-82
2023/04/22 08:09:55;;;;;;;19.67;12.48;;;17.90;55.80;;;;;;5041541;28;20049;-82
2023/04/22 08:12:21;;;;;;;19.70;12.95;;;17.90;57.80;;;;;;5033262;28;20022;-82
2023/04/22 08:14:46;;;;;;;23.13;13.52;;;17.30;56.80;;;;;;5038464;28;20029;-84
2023/04/22 08:17:12;;;;;;;19.55;12.50;;;16.90;61.70;;;;;;5041985;28;20029;-82
2023/04/22 08:19:37;;;;;;;20.52;13.50;;;16.60;69.80;;;;;;5038061;28;20028;-82
2023/04/22 08:22:03;;;;;;;19.42;11.95;;;16.20;69.20;;;;;;5026887;28;20463;-82
2023/04/22 08:24:29;;;;;;;19.60;13.07;;;15.90;74.50;;;;;;5027228;28;20033;-82
2023/04/22 08:26:55;;;;;;;19.42;11.85;;;15.50;79.80;;;;;;5026638;28;20064;-81
2023/04/22 08:29:21;;;;;;;18.90;11.93;;;15.40;81.40;;;;;;5025422;28;20475;-83
2023/04/22 08:31:46;;;;;;;18.08;12.57;;;15.20;83.60;;;;;;5043167;28;20025;-82
2023/04/22 08:34:12;;;;;;;20.65;13.13;;;15.30;87.40;;;;;;5031277;28;20029;-82
2023/04/22 08:36:37;;;;;;;21.92;13.77;;;15.80;84.10;;;;;;5033812;28;20116;-83
2023/04/22 08:39:03;;;;;;;22.45;13.95;;;16.20;75.00;;;;;;5021505;28;20033;-83
2023/04/22 08:41:32;;;;;;;20.73;13.27;;;16.80;65.50;;;;;;5036647;28;20029;-84
2023/04/22 08:43:59;;;;;;;18.95;12.48;;;17.90;62.10;;;;;;5030478;28;20037;-82
2023/04/22 08:46:25;;;;;;;20.77;13.02;;;19.00;54.20;;;;;;5023385;28;20042;-84
2023/04/22 08:48:52;;;;;;;19.80;12.00;;;20.70;51.70;;;;;;5040489;28;20064;-84
2023/04/22 08:51:18;;;;;;;17.13;11.93;;;23.60;46.60;;;;;;5037372;28;20016;-84
2023/04/22 08:53:44;;;;;;;16.73;11.77;;;26.20;40.70;;;;;;5017814;28;20036;-83
2023/04/22 08:56:14;;;;;;;17.20;11.40;;;28.00;36.40;;;;;;5024647;28;20028;-84
2023/04/22 08:58:42;;;;;;;17.95;12.13;;;28.00;31.50;;;;;;5038989;28;20093;-84
2023/04/22 09:01:08;;;;;;;16.35;12.27;;;26.70;34.30;;;;;;5041004;28;20127;-84
2023/04/22 09:03:37;;;;;;;17.23;12.23;;;25.30;35.40;;;;;;5039510;28;20454;-84
2023/04/22 09:06:04;;;;;;;16.52;12.05;;;25.00;37.70;;;;;;5043520;28;20392;-83
2023/04/22 09:08:31;;;;;;;15.93;10.75;;;24.80;36.90;;;;;;5049563;28;20066;-83
2023/04/22 09:10:57;;;;;;;15.05;10.95;;;25.40;38.20;;;;;;5064771;28;20618;-83
2023/04/22 09:13:24;;;;;;;12.15;10.27;;;26.10;36.00;;;;;;5048023;28;20037;-83
2023/04/22 09:15:50;;;;;;;16.73;10.85;;;27.00;34.30;;;;;;5066677;28;20396;-84
2023/04/22 09:18:17;;;;;;;12.85;9.93;;;29.60;30.90;;;;;;5046258;28;20031;-83
2023/04/22 09:20:45;;;;;;;13.57;9.88;;;31.90;29.60;;;;;;5047972;28;20064;-83
2023/04/22 09:23:11;;;;;;;10.95;9.55;;;32.70;28.50;;;;;;5080270;28;20516;-84
2023/04/22 09:25:37;;;;;;;11.10;9.00;;;33.60;26.10;;;;;;5068091;28;20036;-83
2023/04/22 09:28:03;;;;;;;11.32;8.18;;;34.00;25.50;;;;;;5065214;28;20552;-83
2023/04/22 09:30:36;;;;;;;10.88;7.43;;;35.50;25.90;;;;;;5066776;28;20033;-85
2023/04/22 09:33:03;;;;;;;7.82;7.03;;;36.50;24.30;;;;;;5066826;28;20028;-84
2023/04/22 09:35:38;;;;;;;7.03;5.63;;;36.90;23.20;;;;;;5067347;28;20032;-85
2023/04/22 09:38:08;;;;;;;7.70;6.50;;;37.20;22.20;;;;;;5066878;28;20047;-84
2023/04/22 09:40:35;;;;;;;7.50;6.75;;;36.90;23.60;;;;;;5039789;28;20075;-85
2023/04/22 09:43:03;;;;;;;8.48;6.80;;;37.10;21.10;;;;;;5060725;28;20078;-84
2023/04/22 09:45:40;;;;;;;8.63;7.68;;;35.90;23.10;;;;;;5061648;28;20036;-85
2023/04/22 09:48:11;;;;;;;8.80;7.15;;;35.00;23.20;;;;;;5067292;28;20033;-84
2023/04/22 09:50:39;;;;;;;10.35;6.97;;;35.40;23.60;;;;;;5067047;28;20024;-84
2023/04/22 09:53:09;;;;;;;9.20;7.70;;;35.00;24.90;;;;;;5066107;28;20040;-83
2023/04/22 09:55:42;;;;;;;13.30;8.82;;;35.70;24.10;;;;;;5044209;28;20025;-84
2023/04/22 09:58:13;;;;;;;10.45;8.00;;;36.10;23.30;;;;;;5060025;28;20024;-85
2023/04/22 10:00:50;;;;;;;7.32;6.63;;;35.80;23.20;;;;;;5067735;28;20028;-84
2023/04/22 10:03:17;;;;;;;8.38;7.57;;;36.60;23.50;;;;;;5049958;28;20085;-84
2023/04/22 10:05:44;;;;;;;10.32;8.88;;;36.60;21.20;;;;;;5055214;28;20036;-84
2023/04/22 10:08:11;;;;;;;8.73;7.57;;;35.50;23.30;;;;;;5062853;28;20111;-84
2023/04/22 10:10:37;;;;;;;9.68;7.35;;;33.40;24.40;;;;;;5025463;28;20144;-85
2023/04/22 10:13:03;;;;;;;8.65;7.80;;;31.50;26.00;;;;;;5036486;28;20060;-84
2023/04/22 10:15:33;;;;;;;12.65;8.50;;;29.70;27.30;;;;;;5025686;28;20388;-84
2023/04/22 10:18:00;;;;;;;10.20;8.32;;;27.50;28.70;;;;;;5043026;28;20233;-83
2023/04/22 10:20:28;;;;;;;10.38;8.82;;;25.80;30.60;;;;;;5047504;28;20484;-84
2023/04/22 10:22:55;;;;;;;10.80;8.90;;;24.60;34.50;;;;;;5030072;28;20049;-85
2023/04/22 10:25:25;;;;;;;11.32;8.63;;;23.60;34.60;;;;;;5045372;28;20043;-83
2023/04/22 10:28:10;;;;;;;10.80;8.85;;;22.50;36.00;;;;;;5046608;28;20543;-83
2023/04/22 10:30:38;;;;;;;14.88;10.13;;;22.60;37.20;;;;;;5044632;28;20744;-85
2023/04/22 10:33:30;;;;;;;11.43;8.90;;;22.80;37.30;;;;;;5043157;28;20032;-83
2023/04/22 10:36:14;;;;;;;9.35;6.90;;;25.40;36.30;;;;;;5042105;28;20115;-88
2023/04/22 10:38:51;;;;;;;10.25;5.82;;;28.40;30.60;;;;;;5041266;28;20200;-85
2023/04/22 10:41:32;;;;;;;9.02;6.82;;;31.70;29.10;;;;;;5023633;28;20033;-84
2023/04/22 10:44:00;;;;;;;7.00;6.22;;;32.40;26.00;;;;;;5041991;28;20021;-84
2023/04/22 10:46:36;;;;;;;5.85;5.18;;;32.40;24.00;;;;;;5041558;28;20037;-84
2023/04/22 10:49:16;;;;;;;5.03;4.53;;;33.30;23.70;;;;;;5043812;28;20052;-84
2023/04/22 10:51:43;;;;;;;;;;;34.40;24.50;;;;;;5045045;28;20032;-82
2023/04/22 10:54:25;;;;;;;5.18;4.25;;;34.00;22.30;;;;;;5043280;28;20016;-84
2023/04/22 10:57:10;;;;;;;6.00;4.72;;;34.20;22.30;;;;;;5043087;28;20059;-85
2023/04/22 10:59:47;;;;;;;5.47;3.72;;;33.50;23.40;;;;;;5043127;28;20082;-84
2023/04/22 11:02:15;;;;;;;5.40;4.90;;;31.30;24.70;;;;;;5041853;28;20047;-85
2023/04/22 11:04:41;;;;;;;5.88;4.50;;;28.60;25.50;;;;;;5041344;28;20043;-84
2023/04/22 11:07:15;;;;;;;6.35;5.45;;;29.10;27.00;;;;;;5039155;28;20112;-86
2023/04/22 11:09:44;;;;;;;6.38;4.68;;;27.60;26.50;;;;;;5053560;28;20053;-86
2023/04/22 11:12:34;;;;;;;6.63;4.57;;;27.40;27.40;;;;;;5064223;28;20067;-88
2023/04/22 11:15:03;;;;;;;5.40;4.75;;;27.40;27.10;;;;;;5062240;28;20056;-86
2023/04/22 11:17:30;;;;;;;5.82;5.18;;;26.80;28.80;;;;;;5065952;28;20028;-87
2023/04/22 11:19:57;;;;;;;5.18;4.30;;;25.70;29.20;;;;;;5038735;28;20066;-88
2023/04/22 11:22:23;;;;;;;6.28;5.10;;;25.70;31.50;;;;;;5063808;28;20080;-89
2023/04/22 11:25:00;;;;;;;6.03;4.80;;;25.30;31.40;;;;;;5065943;28;20391;-87
2023/04/22 11:27:26;;;;;;;5.55;4.95;;;25.00;31.10;;;;;;5047452;28;20072;-89
2023/04/22 11:30:08;;;;;;;6.90;4.30;;;24.70;29.40;;;;;;5064692;28;20410;-89
2023/04/22 11:32:35;;;;;;;6.05;4.70;;;24.70;31.50;;;;;;5064470;28;20044;-89
2023/04/22 11:35:14;;;;;;;5.15;4.30;;;24.40;31.80;;;;;;5062941;28;20104;-88
2023/04/22 11:37:42;;;;;;;6.20;4.72;;;23.60;30.20;;;;;;5058463;28;20039;-88
2023/04/22 11:40:09;;;;;;;5.95;5.07;;;23.00;32.90;;;;;;5046825;28;21572;-87
2023/04/22 11:42:36;;;;;;;9.05;5.90;;;22.20;33.70;;;;;;5062564;28;20488;-87
2023/04/22 11:45:02;;;;;;;6.55;5.03;;;21.70;35.30;;;;;;5045977;28;20040;-88
2023/04/22 11:47:31;;;;;;;7.93;6.57;;;21.80;36.50;;;;;;5061333;28;20479;-89
2023/04/22 11:49:58;;;;;;;7.68;6.15;;;21.80;34.90;;;;;;5054529;28;20113;-87
2023/04/22 11:52:25;;;;;;;5.85;4.85;;;20.80;33.10;;;;;;5056978;28;20120;-88
2023/04/22 11:54:51;;;;;;;6.68;5.45;;;21.00;36.90;;;;;;5048648;28;20028;-87
2023/04/22 11:57:16;;;;;;;9.02;5.40;;;21.20;38.30;;;;;;5033485;28;20418;-87
2023/04/22 11:59:43;;;;;;;7.05;5.60;;;21.50;37.50;;;;;;5037962;28;20059;-89
2023/04/22 12:02:09;;;;;;;7.60;5.97;;;21.40;36.80;;;;;;5055237;28;20031;-87
2023/04/22 12:04:38;;;;;;;9.32;5.72;;;20.60;35.30;;;;;;5052394;28;20036;-87
2023/04/22 12:07:05;;;;;;;8.25;5.70;;;20.80;36.70;;;;;;5052018;28;20430;-87
2023/04/22 12:09:30;;;;;;;8.80;6.03;;;21.10;40.00;;;;;;5051049;28;20048;-88
2023/04/22 12:11:56;;;;;;;8.63;6.50;;;20.60;37.00;;;;;;5038487;28;20024;-89
2023/04/22 12:14:30;;;;;;;10.13;7.05;;;19.80;39.20;;;;;;5059147;28;20529;-85
2023/04/22 12:16:56;;;;;;;10.18;7.22;;;19.60;37.40;;;;;;5054567;28;20036;-89
2023/04/22 12:19:25;;;;;;;9.13;6.78;;;19.10;40.30;;;;;;5059574;28;20192;-88
2023/04/22 12:21:55;;;;;;;8.00;6.70;;;19.40;40.50;;;;;;5056609;28;20357;-89
2023/04/22 12:24:27;;;;;;;6.88;5.60;;;19.20;39.50;;;;;;5053338;28;20070;-88
2023/04/22 12:26:53;;;;;;;7.13;5.88;;;19.10;40.20;;;;;;5054868;28;20271;-88
2023/04/22 12:29:26;;;;;;;7.72;6.50;;;18.40;41.80;;;;;;5056132;28;20530;-86
2023/04/22 12:31:52;;;;;;;8.82;6.82;;;18.50;42.00;;;;;;5059307;28;20515;-86
2023/04/22 12:34:17;;;;;;;7.43;6.10;;;18.40;42.30;;;;;;5065510;28;20067;-83
2023/04/22 12:36:43;;;;;;;9.60;6.10;;;18.10;40.90;;;;;;5065501;28;20039;-83